createdAt,value
2018-12-04T00:02:23.103Z,98780.61
2018-12-04T00:05:27.622Z,98772.64
2018-12-04T00:08:32.161Z,98779.44
2018-12-04T00:11:36.664Z,98790.55
2018-12-04T00:14:41.110Z,98787.59
2018-12-04T00:17:45.640Z,98793.30
2018-12-04T00:20:50.222Z,98794.77
2018-12-04T00:23:54.711Z,98801.03
2018-12-04T00:26:59.543Z,98797.34
2018-12-04T00:30:05.349Z,98812.81
2018-12-04T00:33:09.882Z,98801.94
2018-12-04T00:36:14.429Z,98810.52
2018-12-04T00:39:19.015Z,98811.00
2018-12-04T00:42:23.547Z,98815.91
2018-12-04T00:45:28.188Z,98828.31
2018-12-04T00:48:32.677Z,98822.96
2018-12-04T00:51:37.450Z,98830.89
2018-12-04T00:54:41.987Z,98831.66
2018-12-04T00:57:46.503Z,98829.54
2018-12-04T01:00:50.997Z,98840.12
2018-12-04T01:03:55.644Z,98845.55
2018-12-04T01:07:00.169Z,98857.70
2018-12-04T01:10:06.684Z,98862.33
2018-12-04T01:13:11.280Z,98865.03
2018-12-04T01:16:15.762Z,98860.22
2018-12-04T01:19:20.385Z,98866.28
2018-12-04T01:22:24.930Z,98878.69
2018-12-04T01:25:29.565Z,98876.22
2018-12-04T01:28:34.254Z,98882.82
2018-12-04T01:31:38.742Z,98870.38
2018-12-04T01:34:43.363Z,98881.39
2018-12-04T01:37:48.029Z,98882.05
2018-12-04T01:40:52.693Z,98883.41
2018-12-04T01:43:57.497Z,98899.02
2018-12-04T01:47:02.521Z,98897.19
2018-12-04T01:50:07.364Z,98902.23
2018-12-04T01:53:11.947Z,98896.89
2018-12-04T01:56:16.609Z,98907.62
2018-12-04T01:59:21.165Z,98915.40
2018-12-04T02:02:25.662Z,98904.78
2018-12-04T02:05:30.180Z,98924.14
2018-12-04T02:08:34.712Z,98923.33
2018-12-04T02:11:39.256Z,98924.84
2018-12-04T02:14:43.844Z,98930.68
2018-12-04T02:17:48.515Z,98933.67
2018-12-04T02:20:54.016Z,98939.30
2018-12-04T02:23:58.530Z,98923.87
2018-12-04T02:27:03.049Z,98941.58
2018-12-04T02:30:09.888Z,98949.30
2018-12-04T02:33:14.406Z,98951.71
2018-12-04T02:36:18.965Z,98952.41
2018-12-04T02:39:23.717Z,98942.48
2018-12-04T02:42:28.356Z,98949.92
2018-12-04T02:45:32.786Z,98948.91
2018-12-04T02:48:37.445Z,98959.25
2018-12-04T02:51:42.096Z,98976.50
2018-12-04T02:54:46.609Z,98986.92
2018-12-04T02:57:51.249Z,98985.97
2018-12-04T03:00:55.824Z,98985.77
2018-12-04T03:04:00.479Z,98989.95
2018-12-04T03:07:05.086Z,98982.69
2018-12-04T03:10:09.836Z,98987.55
2018-12-04T03:13:14.341Z,98995.73
2018-12-04T03:16:18.953Z,99003.13
2018-12-04T03:19:23.588Z,99004.92
2018-12-04T03:22:28.095Z,99008.97
2018-12-04T03:25:32.833Z,99017.57
2018-12-04T03:28:37.517Z,99023.64
2018-12-04T03:31:41.967Z,99023.50
2018-12-04T03:34:46.539Z,99031.37
2018-12-04T03:37:51.090Z,99053.34
2018-12-04T03:40:55.654Z,99053.14
2018-12-04T03:44:00.476Z,99055.64
2018-12-04T03:47:05.154Z,99067.66
2018-12-04T03:50:09.992Z,99073.85
2018-12-04T03:53:14.503Z,99084.18
2018-12-04T03:56:19.069Z,99089.05
2018-12-04T03:59:23.611Z,99079.27
2018-12-04T04:02:28.294Z,99083.29
2018-12-04T04:05:32.827Z,99092.09
2018-12-04T04:08:37.410Z,99102.35
2018-12-04T04:11:42.025Z,99109.34
2018-12-04T04:14:46.536Z,99125.45
2018-12-04T04:17:51.718Z,99118.41
2018-12-04T04:20:59.428Z,99133.14
2018-12-04T04:24:04.024Z,99141.38
2018-12-04T04:27:08.641Z,99128.31
2018-12-04T04:30:13.338Z,99144.77
2018-12-04T04:33:17.859Z,99166.23
2018-12-04T04:36:22.446Z,99179.59
2018-12-04T04:39:27.057Z,99178.58
2018-12-04T04:42:31.539Z,99187.58
2018-12-04T04:45:36.056Z,99204.76
2018-12-04T04:48:40.643Z,99205.63
2018-12-04T04:51:45.377Z,99220.38
2018-12-04T04:54:49.990Z,99218.59
2018-12-04T04:57:54.550Z,99233.63
2018-12-04T05:00:59.082Z,99228.91
2018-12-04T05:04:03.599Z,99232.80
2018-12-04T05:07:08.185Z,99251.20
2018-12-04T05:10:12.678Z,99244.31
2018-12-04T05:13:17.148Z,99254.50
2018-12-04T05:16:21.695Z,99260.09
2018-12-04T05:19:26.516Z,99268.38
2018-12-04T05:22:31.164Z,99273.67
2018-12-04T05:25:35.678Z,99275.40
2018-12-04T05:28:40.162Z,99282.08
2018-12-04T05:31:44.753Z,99292.11
2018-12-04T05:34:49.264Z,99294.97
2018-12-04T05:37:53.790Z,99308.86
2018-12-04T05:44:12.545Z,99315.19
2018-12-04T05:47:17.146Z,99326.40
2018-12-04T05:50:21.985Z,99337.44
2018-12-04T05:53:36.096Z,99344.45
2018-12-04T05:56:40.860Z,99351.11
2018-12-04T05:59:45.381Z,99360.23
2018-12-04T06:02:49.946Z,99372.42
2018-12-04T06:05:54.434Z,99382.22
2018-12-04T06:08:58.955Z,99389.09
2018-12-04T06:12:03.561Z,99400.15
2018-12-04T06:15:08.237Z,99411.96
2018-12-04T06:18:12.654Z,99415.41
2018-12-04T06:21:17.220Z,99417.09
2018-12-04T06:24:21.721Z,99431.88
2018-12-04T06:27:26.350Z,99440.62
2018-12-04T06:30:31.038Z,99440.20
2018-12-04T06:33:35.654Z,99445.41
2018-12-04T06:36:40.307Z,99450.80
2018-12-04T06:39:44.875Z,99459.78
2018-12-04T06:42:49.373Z,99459.40
2018-12-04T06:45:53.882Z,99475.73
2018-12-04T06:48:58.402Z,99485.53
2018-12-04T06:52:02.981Z,99487.73
2018-12-04T06:55:08.956Z,99497.81
2018-12-04T06:58:13.503Z,99514.98
2018-12-04T07:01:18.055Z,99528.13
2018-12-04T07:04:22.605Z,99546.34
2018-12-04T07:07:27.144Z,99546.52
2018-12-04T07:10:31.630Z,99557.59
2018-12-04T07:13:36.217Z,99560.91
2018-12-04T07:16:40.834Z,99577.09
2018-12-04T07:19:45.359Z,99595.30
2018-12-04T07:22:50.010Z,99601.39
2018-12-04T07:25:54.537Z,99609.27
2018-12-04T07:28:59.107Z,99623.77
2018-12-04T07:32:03.748Z,99619.52
2018-12-04T07:35:09.545Z,99625.45
2018-12-04T07:38:14.133Z,99641.38
2018-12-04T07:41:18.833Z,99644.07
2018-12-04T07:44:23.344Z,99650.67
2018-12-04T07:47:27.895Z,99651.20
2018-12-04T07:50:32.462Z,99662.55
2018-12-04T07:53:37.098Z,99665.64
2018-12-04T07:56:41.711Z,99677.69
2018-12-04T07:59:46.556Z,99682.88
2018-12-04T08:02:51.821Z,99692.94
2018-12-04T08:05:56.646Z,99705.29
2018-12-04T08:09:01.336Z,99709.84
2018-12-04T08:12:05.885Z,99716.04
2018-12-04T08:15:10.498Z,99719.02
2018-12-04T08:18:15.099Z,99727.82
2018-12-04T08:21:19.690Z,99733.73
2018-12-04T08:24:24.181Z,99735.92
2018-12-04T08:27:34.205Z,99749.88
2018-12-04T08:30:38.812Z,99754.66
2018-12-04T08:33:43.499Z,99762.67
2018-12-04T08:36:48.181Z,99763.20
2018-12-04T08:39:52.682Z,99772.83
2018-12-04T08:42:59.069Z,99777.27
2018-12-04T08:46:03.668Z,99789.39
2018-12-04T08:49:08.295Z,99795.09
2018-12-04T08:52:12.840Z,99808.53
2018-12-04T08:55:19.018Z,99811.64
2018-12-04T08:58:23.875Z,99822.89
2018-12-04T09:01:28.397Z,99827.99
2018-12-04T09:04:33.085Z,99837.92
2018-12-04T09:07:37.628Z,99838.14
2018-12-04T09:10:42.245Z,99852.09
2018-12-04T09:13:46.778Z,99854.99
2018-12-04T09:16:51.392Z,99867.73
2018-12-04T09:19:56.205Z,99867.53
2018-12-04T09:23:00.972Z,99871.23
2018-12-04T09:26:05.652Z,99880.05
2018-12-04T09:29:10.319Z,99884.17
2018-12-04T09:32:15.485Z,99886.47
2018-12-04T09:35:20.039Z,99897.38
2018-12-04T09:38:24.612Z,99898.60
2018-12-04T09:41:29.197Z,99900.25
2018-12-04T09:44:33.988Z,99910.81
2018-12-04T09:47:38.735Z,99906.06
2018-12-04T09:50:43.243Z,99921.08
2018-12-04T09:53:52.045Z,99930.39
2018-12-04T09:56:54.436Z,99930.08
2018-12-04T09:59:58.902Z,99941.36
2018-12-04T10:03:03.408Z,99944.27
2018-12-04T10:06:08.025Z,99948.09
2018-12-04T10:09:12.594Z,99943.94
2018-12-04T10:12:17.280Z,99949.77
2018-12-04T10:15:22.004Z,99955.41
2018-12-04T10:18:26.592Z,99955.97
2018-12-04T10:21:31.250Z,99964.53
2018-12-04T10:24:35.848Z,99964.95
2018-12-04T10:27:40.587Z,99982.14
2018-12-04T10:30:49.220Z,99985.20
2018-12-04T10:33:53.915Z,99996.60
2018-12-04T10:36:58.443Z,99998.98
2018-12-04T10:40:03.046Z,100008.70
2018-12-04T10:43:07.663Z,100006.28
2018-12-04T10:46:12.270Z,99993.98
2018-12-04T10:49:17.013Z,99991.81
2018-12-04T10:52:21.858Z,99991.34
2018-12-04T10:55:26.443Z,100000.31
2018-12-04T10:58:31.036Z,100008.59
2018-12-04T11:01:40.587Z,100015.67
2018-12-04T11:04:45.178Z,100022.00
2018-12-04T11:07:49.682Z,100023.94
2018-12-04T11:10:54.311Z,100024.23
2018-12-04T11:13:58.905Z,100030.09
2018-12-04T11:17:03.517Z,100039.63
2018-12-04T11:20:10.655Z,100042.88
2018-12-04T11:23:15.689Z,100050.52
2018-12-04T11:26:20.327Z,100052.49
2018-12-04T11:29:24.983Z,100062.28
2018-12-04T11:32:29.540Z,100075.34
2018-12-04T11:35:34.146Z,100074.10
2018-12-04T11:38:38.667Z,100077.79
2018-12-04T11:41:43.234Z,100077.86
2018-12-04T11:44:47.759Z,100078.82
2018-12-04T11:47:52.377Z,100087.61
2018-12-04T11:51:00.233Z,100082.27
2018-12-04T11:54:03.762Z,100089.02
2018-12-04T11:57:08.580Z,100088.65
2018-12-04T12:03:36.730Z,100099.30
2018-12-04T12:06:41.455Z,100102.87
2018-12-04T12:09:46.006Z,100114.17
2018-12-04T12:12:50.481Z,100114.53
2018-12-04T12:15:55.284Z,100117.45
2018-12-04T12:18:59.945Z,100136.55
2018-12-04T12:22:04.740Z,100140.98
2018-12-04T12:25:09.506Z,100147.20
2018-12-04T12:28:14.011Z,100147.06
2018-12-04T12:31:21.093Z,100146.84
2018-12-04T12:34:25.675Z,100149.30
2018-12-04T12:37:30.296Z,100150.95
2018-12-04T12:40:35.282Z,100151.97
2018-12-04T12:43:40.149Z,100158.30
2018-12-04T12:46:44.850Z,100163.11
2018-12-04T12:49:49.583Z,100173.56
2018-12-04T12:52:54.183Z,100179.36
2018-12-04T12:55:58.881Z,100179.46
2018-12-04T12:59:03.548Z,100176.93
2018-12-04T13:02:08.128Z,100180.20
2018-12-04T13:05:12.892Z,100183.75
2018-12-04T13:08:18.166Z,100188.44
2018-12-04T13:11:28.950Z,100194.59
2018-12-04T13:14:34.112Z,100197.16
2018-12-04T13:17:38.780Z,100200.77
2018-12-04T13:20:43.350Z,100210.91
2018-12-04T13:23:47.919Z,100211.77
2018-12-04T13:26:52.685Z,100214.84
2018-12-04T13:29:57.263Z,100219.33
2018-12-04T13:33:01.819Z,100225.59
2018-12-04T13:36:06.809Z,100231.67
2018-12-04T13:39:12.309Z,100223.99
2018-12-04T13:42:16.938Z,100237.99
2018-12-04T13:45:21.554Z,100245.16
2018-12-04T13:48:26.093Z,100237.09
2018-12-04T13:51:30.987Z,100246.50
2018-12-04T13:54:35.777Z,100251.31
2018-12-04T13:57:40.457Z,100248.28
2018-12-04T14:00:46.365Z,100254.02
2018-12-04T14:03:56.142Z,100254.42
2018-12-04T14:07:01.102Z,100256.83
2018-12-04T14:10:08.623Z,100265.17
2018-12-04T14:13:13.352Z,100264.55
2018-12-04T14:16:17.974Z,100263.17
2018-12-04T14:19:22.506Z,100260.55
2018-12-04T14:22:27.227Z,100270.34
2018-12-04T14:25:31.768Z,100271.80
2018-12-04T14:28:36.494Z,100275.20
2018-12-04T14:31:41.010Z,100284.14
2018-12-04T14:34:45.938Z,100294.69
2018-12-04T14:37:50.598Z,100305.88
2018-12-04T14:40:55.269Z,100309.70
2018-12-04T14:44:08.399Z,100307.08
2018-12-04T14:47:13.072Z,100315.42
2018-12-04T14:50:17.938Z,100323.25
2018-12-04T14:53:22.505Z,100339.48
2018-12-04T14:56:27.653Z,100344.70
2018-12-04T14:59:32.352Z,100356.84
2018-12-04T15:02:36.976Z,100355.52
2018-12-04T15:05:41.542Z,100359.58
2018-12-04T15:08:46.261Z,100363.50
2018-12-04T15:11:51.016Z,100366.53
2018-12-04T15:14:55.807Z,100371.77
2018-12-04T15:18:00.454Z,100376.98
2018-12-04T15:21:05.956Z,100378.53
2018-12-04T15:24:10.630Z,100394.44
2018-12-04T15:27:15.380Z,100391.26
2018-12-04T15:30:20.225Z,100392.93
2018-12-04T15:33:24.849Z,100404.45
2018-12-04T15:36:29.600Z,100415.62
2018-12-04T15:39:34.142Z,100416.44
2018-12-04T15:42:38.772Z,100419.21
2018-12-04T15:45:43.507Z,100423.52
2018-12-04T15:48:48.135Z,100423.45
2018-12-04T15:51:52.811Z,100432.20
2018-12-04T15:54:57.587Z,100438.70
2018-12-04T15:58:02.381Z,100437.35
2018-12-04T16:01:07.776Z,100451.15
2018-12-04T16:04:12.393Z,100455.91
2018-12-04T16:07:17.098Z,100451.99
2018-12-04T16:10:21.677Z,100458.19
2018-12-04T16:13:26.127Z,100464.57
2018-12-04T16:16:30.802Z,100463.52
2018-12-04T16:19:35.373Z,100468.13
2018-12-04T16:22:39.993Z,100473.73
2018-12-04T16:25:44.555Z,100485.36
2018-12-04T16:28:50.344Z,100486.98
2018-12-04T16:31:57.230Z,100492.76
2018-12-04T16:35:01.817Z,100500.12
2018-12-04T16:38:06.501Z,100506.53
2018-12-04T16:41:11.304Z,100510.47
2018-12-04T16:44:15.853Z,100522.84
2018-12-04T16:47:20.576Z,100525.81
2018-12-04T16:50:25.223Z,100528.15
2018-12-04T16:53:29.843Z,100533.22
2018-12-04T16:56:34.409Z,100538.31
2018-12-04T16:59:39.121Z,100541.81
2018-12-04T17:02:43.876Z,100541.61
2018-12-04T17:05:48.443Z,100542.70
2018-12-04T17:08:52.958Z,100545.89
2018-12-04T17:11:57.536Z,100543.34
2018-12-04T17:15:02.281Z,100556.34
2018-12-04T17:18:07.646Z,100556.63
2018-12-04T17:21:12.266Z,100560.19
2018-12-04T17:24:16.905Z,100566.80
2018-12-04T17:27:21.414Z,100564.88
2018-12-04T17:30:26.492Z,100567.75
2018-12-04T17:33:31.219Z,100568.17
2018-12-04T17:36:35.886Z,100569.95
2018-12-04T17:39:40.403Z,100569.20
2018-12-04T17:42:44.980Z,100583.93
2018-12-04T17:45:49.737Z,100591.17
2018-12-04T17:48:54.225Z,100602.05
2018-12-04T17:51:58.895Z,100603.99
2018-12-04T17:55:03.529Z,100606.80
2018-12-04T17:58:08.051Z,100610.34
2018-12-04T18:01:12.702Z,100608.67
2018-12-04T18:04:17.380Z,100614.33
2018-12-04T18:07:22.352Z,100616.58
2018-12-04T18:10:27.044Z,100619.13
2018-12-04T18:13:31.719Z,100614.03
2018-12-04T18:16:36.578Z,100612.41
2018-12-04T18:19:41.383Z,100608.41
2018-12-04T18:22:46.046Z,100612.69
2018-12-04T18:25:50.737Z,100618.78
2018-12-04T18:28:55.502Z,100622.55
2018-12-04T18:32:00.119Z,100630.23
2018-12-04T18:35:05.062Z,100635.11
2018-12-04T18:38:10.265Z,100639.55
2018-12-04T18:41:14.820Z,100638.67
2018-12-04T18:44:20.197Z,100640.55
2018-12-04T18:47:24.770Z,100648.13
2018-12-04T18:50:29.622Z,100657.88
2018-12-04T18:53:34.591Z,100647.19
2018-12-04T18:56:39.257Z,100657.60
2018-12-04T18:59:44.803Z,100662.02
2018-12-04T19:03:37.477Z,100660.48
2018-12-04T19:06:42.037Z,100657.49
2018-12-04T19:09:46.719Z,100653.23
2018-12-04T19:12:51.565Z,100656.28
2018-12-04T19:15:56.307Z,100655.16
2018-12-04T19:19:01.878Z,100665.78
2018-12-04T19:22:06.621Z,100671.44
2018-12-04T19:25:11.486Z,100678.15
2018-12-04T19:28:16.196Z,100673.88
2018-12-04T19:31:21.387Z,100673.22
2018-12-04T19:34:26.277Z,100674.41
2018-12-04T19:37:31.020Z,100679.61
2018-12-04T19:40:36.435Z,100689.61
2018-12-04T19:43:41.306Z,100695.23
2018-12-04T19:46:45.858Z,100703.67
2018-12-04T19:49:50.653Z,100704.10
2018-12-04T19:52:55.397Z,100710.22
2018-12-04T19:56:00.352Z,100714.28
2018-12-04T20:02:19.759Z,100722.38
2018-12-04T20:05:24.467Z,100728.42
2018-12-04T20:08:33.321Z,100737.66
2018-12-04T20:14:54.491Z,100729.74
2018-12-04T20:17:59.181Z,100740.26
2018-12-04T20:21:03.764Z,100748.79
2018-12-04T20:24:08.450Z,100753.84
2018-12-04T20:27:13.105Z,100755.22
2018-12-04T20:30:17.823Z,100751.15
2018-12-04T20:33:22.462Z,100749.78
2018-12-04T20:36:26.967Z,100748.73
2018-12-04T20:39:31.513Z,100749.17
2018-12-04T20:42:36.033Z,100758.55
2018-12-04T20:45:40.659Z,100758.16
2018-12-04T20:48:45.247Z,100755.17
2018-12-04T20:51:49.781Z,100770.44
2018-12-04T20:54:54.383Z,100775.11
2018-12-04T20:57:59.053Z,100783.53
2018-12-04T21:01:03.759Z,100786.95
2018-12-04T21:04:08.285Z,100796.48
2018-12-04T21:07:12.845Z,100790.63
2018-12-04T21:10:17.402Z,100799.23
2018-12-04T21:13:22.164Z,100801.98
2018-12-04T21:16:26.777Z,100809.16
2018-12-04T21:19:31.257Z,100808.37
2018-12-04T21:22:36.022Z,100816.19
2018-12-04T21:30:01.800Z,100819.92
2018-12-04T21:33:11.606Z,100825.01
2018-12-04T21:37:20.889Z,100821.63
2018-12-04T21:40:30.680Z,100823.57
2018-12-04T21:43:40.463Z,100813.63
2018-12-04T21:46:50.264Z,100819.93
2018-12-04T21:50:01.640Z,100828.77
2018-12-04T21:53:06.226Z,100827.67
2018-12-04T21:56:10.842Z,100837.91
2018-12-04T21:59:15.459Z,100840.42
2018-12-04T22:02:20.083Z,100839.36
2018-12-04T22:05:25.652Z,100842.51
2018-12-04T22:08:30.200Z,100846.72
2018-12-04T22:11:35.032Z,100849.64
2018-12-04T22:14:39.702Z,100856.77
2018-12-04T22:17:45.026Z,100861.22
2018-12-04T22:20:49.631Z,100869.80
2018-12-04T22:23:54.121Z,100863.25
2018-12-04T22:26:59.387Z,100864.09
2018-12-04T22:30:04.842Z,100854.64
2018-12-04T22:33:09.784Z,100847.77
2018-12-04T22:36:14.718Z,100852.94
2018-12-04T22:39:19.344Z,100850.66
2018-12-04T22:42:24.099Z,100861.97
2018-12-04T22:45:28.928Z,100863.67
2018-12-04T22:48:34.688Z,100871.27
2018-12-04T22:51:39.259Z,100868.21
2018-12-04T22:54:43.753Z,100866.33
2018-12-04T22:57:48.646Z,100866.80
2018-12-04T23:00:53.637Z,100861.91
2018-12-04T23:03:58.444Z,100862.34
2018-12-04T23:07:03.443Z,100863.98
2018-12-04T23:10:08.608Z,100866.98
2018-12-04T23:13:13.775Z,100859.88
2018-12-04T23:16:19.374Z,100863.75
2018-12-04T23:19:24.802Z,100863.77
2018-12-04T23:22:29.892Z,100860.23
2018-12-04T23:25:35.604Z,100856.50
2018-12-04T23:28:40.221Z,100860.00
2018-12-04T23:31:44.783Z,100857.48
2018-12-04T23:34:49.870Z,100857.73
2018-12-04T23:37:55.834Z,100867.59
2018-12-04T23:41:00.935Z,100869.21
2018-12-04T23:44:05.660Z,100857.48
2018-12-04T23:47:11.014Z,100858.70
2018-12-04T23:50:15.745Z,100858.47
2018-12-04T23:53:20.315Z,100852.97
2018-12-04T23:56:25.474Z,100854.25
2018-12-04T23:59:30.669Z,100846.55
